2015 Enduro Resutls

Enduro Results:
Here are all rider’s results on the enduro segments.

Ned’s Little Secret
Place Name Time Activity Date Points
1 Jon Watt 4:33 2015-08-01 10:59:22 1
2 Brady Kappius 4:48 2015-09-30 11:27:22 2
3 Daniel Matheny 4:52 2015-08-30 08:31:03 3
4 John Salskov 5:31 2015-07-13 09:35:45 4
5 Ryan Petry 5:32 2015-07-13 09:35:40 5
6 Evan Fader 5:33 2015-08-30 08:38:02 6
7 Michael Franco 5:41 2015-08-30 08:36:04 7
8 Chris Alstrin 5:46 2015-08-30 08:29:04 8
9 JON HARRACH 5:48 2015-06-28 08:09:10 9
10 Adam Haid 5:53 2015-08-30 08:33:09 10.5
10 Matt Schiff 5:53 2015-08-30 08:29:32 10.5
12 Ben Parman 5:59 2015-08-30 08:29:25 12
13 robert sharp 6:15 2015-08-30 08:36:48 13
14 Eric Fossell 6:31 2015-08-30 08:32:21 14
15 Bryan Derstine 6:39 2015-08-30 08:32:12 15
16 Zach Allen 6:42 2015-08-29 07:34:37 16
17 matt hunt 6:44 2015-08-30 08:45:25 17
18 Dan McMahon 6:45 2015-08-30 08:32:08 18
19 Jason Shields 6:47 2015-08-30 08:36:09 19
20 Ken Kreidl 6:57 2015-08-30 08:36:55 20.5
20 Matt Fetbrod 6:57 2015-08-21 09:26:40 20.5
22 JB Starshow 6:59 2015-08-30 08:31:59 22
23 tony mannina 7:03 2015-08-30 08:36:21 23
24 Darren Tremblay 7:06 2015-08-30 08:33:57 24
25 Mike Ranzinger 7:10 2015-08-30 08:35:54 25
26 TRexa Maria 7:21 2015-08-30 08:35:59 26
27 Dope Peddler 7:51 2015-08-30 07:58:01 27
28 Simon Perkins 7:52 2015-08-30 08:42:10 28
29 Cadence Lee 8:03 2015-09-24 09:40:52 29
30 chris kamp 8:17 2015-08-30 08:38:20 30
31 rob fischer 8:38 2015-08-30 08:38:00 31
32 Greg McVie 9:44 2015-08-30 07:52:47 32
33 Tommy B 10:04 2015-08-30 08:33:59 33
Full Sherwood
Place Name Time Activity Date Points
1 Jon Watt 3:46 2015-08-01 11:29:17 1
2 Brady Kappius 3:58 2015-09-30 11:42:51 2
3 robert sharp 4:17 2015-08-30 08:55:56 3
4 JON HARRACH 4:22 2015-06-28 08:27:58 4
5 Daniel Matheny 4:27 2015-08-30 08:51:17 5
6 Chris Alstrin 4:31 2015-08-30 08:45:38 6
7 Ben Parman 4:36 2015-08-30 08:46:09 7
8 Matt Schiff 4:39 2015-08-30 08:46:07 8
9 Matt Fetbrod 4:43 2015-08-21 09:47:38 9
10 Eric Fossell 4:44 2015-08-30 08:51:34 10
11 Ken Kreidl 4:48 2015-08-30 08:56:02 11
12 Bryan Derstine 4:49 2015-08-30 08:51:32 12
13 Adam Haid 4:50 2015-08-30 08:51:29 13.5
13 Dan McMahon 4:50 2015-08-30 08:51:29 13.5
15 Zach Allen 4:59 2015-08-29 07:55:07 15
16 Jason Shields 5:02 2015-08-30 08:57:37 16
17 John Salskov 5:03 2015-07-13 09:58:43 18
17 Michael Franco 5:03 2015-08-30 08:56:33 18
17 tony mannina 5:03 2015-08-30 08:56:06 18
20 Ryan Petry 5:04 2015-07-13 09:58:42 20
21 JB Starshow 5:05 2015-08-30 08:51:16 21
22 Mike Ranzinger 5:34 2015-08-30 08:56:40 22
23 chris kamp 5:37 2015-08-30 09:01:39 23
24 TRexa Maria 5:48 2015-08-30 08:56:03 24
25 Cadence Lee 5:55 2015-09-24 10:08:48 25
26 Simon Perkins 6:01 2015-08-30 09:06:04 26
27 Greg McVie 6:03 2015-08-30 08:37:18 27.5
27 rob fischer 6:03 2015-08-30 09:02:42 27.5
29 Dope Peddler 6:28 2015-08-30 08:23:16 29
30 Tommy B 8:35 2015-08-30 08:58:33 30
31 Darren Tremblay 8:39 2015-08-30 08:58:24 31
32 Evan Fader No efforts found 33
32 matt hunt No efforts found 33
SSV
Place Name Time Activity Date Points
1 Jon Watt 19:13 2015-08-01 13:33:51 1
2 Brady Kappius 21:18 2015-09-30 13:04:28 2
3 JON HARRACH 22:06 2015-06-28 10:05:47 3
4 robert sharp 23:27 2015-08-30 10:46:32 4
5 Chris Alstrin 23:31 2015-08-30 10:05:49 5
6 Matt Schiff 24:15 2015-08-30 10:07:12 6
7 Zach Allen 25:10 2015-08-29 09:36:25 7
8 Michael Franco 26:23 2015-08-30 10:37:46 8
9 tony mannina 26:47 2015-08-30 10:36:10 9
10 Eric Fossell 29:00 2015-08-30 10:21:29 10
11 JB Starshow 29:46 2015-08-30 10:22:27 11
12 Matt Fetbrod 30:20 2015-08-21 11:36:41 12
13 Dan McMahon 31:07 2015-08-30 10:25:50 13
14 Bryan Derstine 32:03 2015-08-30 10:26:12 14
15 Dope Peddler 32:42 2015-08-30 10:38:38 15
16 TRexa Maria 33:29 2015-08-30 10:46:41 16
17 chris kamp 33:44 2015-08-30 10:46:48 17
18 Jason Shields 39:40 2015-08-30 10:53:52 18
19 Cadence Lee 40:50 2015-09-24 12:36:25 19
20 Darren Tremblay 41:47 2015-08-30 10:47:15 20
21 Greg McVie 43:13 2015-08-30 10:23:02 21
22 Simon Perkins 49:28 2015-08-30 11:20:28 22
23 Daniel Matheny No efforts found 33
23 John Salskov No efforts found 33
23 Ryan Petry No efforts found 33
23 Evan Fader No efforts found 33
23 Adam Haid No efforts found 33
23 Ben Parman No efforts found 33
23 matt hunt No efforts found 33
23 Ken Kreidl No efforts found 33
23 Mike Ranzinger No efforts found 33
23 rob fischer No efforts found 33
23 Tommy B No efforts found 33
Full Squirrel
Place Name Time Activity Date Points
1 Jon Watt 7:26 2015-08-01 15:03:06 1
2 Brady Kappius 7:29 2015-09-30 14:13:23 2
3 Daniel Matheny 8:14 2015-08-30 11:50:07 3
4 robert sharp 8:34 2015-08-30 12:20:38 4
5 Eric Fossell 8:56 2015-08-30 11:50:05 5
6 JON HARRACH 9:22 2015-06-28 11:25:35 6
7 Dan McMahon 9:34 2015-08-30 11:50:21 7
8 Ben Parman 9:35 2015-08-30 11:14:02 8
9 Matt Schiff 9:45 2015-08-30 11:18:07 9
10 Zach Allen 10:38 2015-08-29 11:05:13 10
11 Chris Alstrin 11:08 2015-08-30 11:14:28 11
12 Adam Haid 11:34 2015-08-30 11:50:38 12
13 Dope Peddler 11:51 2015-08-30 12:38:19 13
14 tony mannina 12:13 2015-08-30 12:09:36 14
15 Jason Shields 12:33 2015-08-30 12:51:36 15
16 JB Starshow 12:51 2015-08-30 11:47:49 16
17 John Salskov 13:42 2015-07-13 13:08:05 17
18 Ryan Petry 13:45 2015-07-13 13:08:06 18
19 Ken Kreidl 14:07 2015-08-30 12:20:52 19
20 Greg McVie 14:17 2015-08-30 12:21:40 20
21 Matt Fetbrod 14:18 2015-08-21 13:17:28 21
22 Mike Ranzinger 14:59 2015-08-30 12:22:44 22
23 TRexa Maria 15:33 2015-08-30 12:27:40 23
24 Bryan Derstine 15:42 2015-08-30 11:59:57 24
25 chris kamp 16:01 2015-08-30 12:31:35 25
26 Simon Perkins 17:23 2015-08-30 13:50:17 26
27 Darren Tremblay 18:43 2015-08-30 12:27:43 27
28 Cadence Lee 18:47 2015-09-24 14:42:27 28
29 Tommy B 19:05 2015-08-30 12:28:01 29
30 Evan Fader No efforts found 33
30 Michael Franco No efforts found 33
30 matt hunt No efforts found 33
30 rob fischer No efforts found 33
Todd Gulch DH
Place Name Time Activity Date Points
1 Jon Watt 5:59 2015-08-01 16:23:11 1
2 Brady Kappius 6:10 2015-09-30 15:01:33 2
3 JON HARRACH 6:29 2015-06-28 12:29:06 3
4 Matt Schiff 6:36 2015-08-30 12:07:36 4
5 Chris Alstrin 6:41 2015-08-30 12:17:54 5
6 Ben Parman 6:49 2015-08-30 12:01:14 6
7 Michael Franco 6:51 2015-08-30 12:58:52 7
8 Zach Allen 7:03 2015-08-29 12:05:45 8
9 Daniel Matheny 7:05 2015-08-30 12:46:09 9
10 Dan McMahon 7:07 2015-08-30 12:54:20 10
11 Eric Fossell 7:13 2015-08-30 12:46:06 11
12 tony mannina 8:45 2015-08-30 13:08:15 12
13 Adam Haid 9:12 2015-08-30 12:54:28 13
14 Dope Peddler 9:31 2015-08-30 14:02:45 14
15 Jason Shields 9:34 2015-08-30 14:22:58 15
16 JB Starshow 10:20 2015-08-30 12:53:42 16
17 John Salskov 10:26 2015-07-13 14:03:12 17
18 Ryan Petry 10:27 2015-07-13 14:03:13 18
19 Cadence Lee 10:37 2015-09-24 16:16:44 19
20 Mike Ranzinger 10:53 2015-08-30 13:30:40 20
21 Greg McVie 11:02 2015-08-30 13:30:29 21
22 chris kamp 11:17 2015-08-30 13:51:21 22
23 robert sharp 11:45 2015-08-30 13:32:25 23
24 Bryan Derstine 12:32 2015-08-30 13:15:14 24
25 Ken Kreidl 13:17 2015-08-30 13:32:27 25
26 Evan Fader No efforts found 33
26 matt hunt No efforts found 33
26 Matt Fetbrod No efforts found 33
26 Darren Tremblay No efforts found 33
26 TRexa Maria No efforts found 33
26 Simon Perkins No efforts found 33
26 rob fischer No efforts found 33
26 Tommy B No efforts found 33
Primos Rock Garden DH
Place Name Time Activity Date Points
1 Jon Watt 4:57 2015-08-01 17:26:32 1
2 robert sharp 5:06 2015-08-30 14:56:51 2
3 JON HARRACH 5:13 2015-06-28 13:26:41 3
4 Ben Parman 5:18 2015-08-30 12:53:50 4
5 Chris Alstrin 5:34 2015-08-30 13:18:25 5
6 Brady Kappius 5:42 2015-09-30 16:04:36 6
7 Evan Fader 6:01 2015-08-30 15:17:19 7
8 Michael Franco 6:13 2015-08-30 14:09:19 8
9 Daniel Matheny 6:26 2015-08-30 13:59:01 9
10 Adam Haid 6:29 2015-08-30 14:20:22 10
11 Zach Allen 6:33 2015-08-29 13:14:03 11
12 Dan McMahon 6:35 2015-08-30 14:20:19 12
13 Eric Fossell 6:48 2015-08-30 13:59:06 13
14 John Salskov 6:52 2015-07-13 14:50:51 14
15 Ken Kreidl 6:53 2015-08-30 14:56:53 15
16 Ryan Petry 6:56 2015-07-13 14:50:52 16
17 Matt Fetbrod 6:59 2015-08-21 16:06:39 17
18 tony mannina 7:08 2015-08-30 14:19:46 18
19 JB Starshow 7:15 2015-08-30 14:09:33 19
20 chris kamp 7:19 2015-08-30 15:16:23 20
21 Cadence Lee 7:35 2015-09-24 17:37:26 21
22 Darren Tremblay 8:31 2015-08-30 15:02:29 22
23 TRexa Maria 8:40 2015-08-30 15:04:57 23
24 Tommy B 8:44 2015-08-30 15:02:27 24
25 matt hunt 8:46 2015-08-30 16:41:46 25
26 Simon Perkins 9:30 2015-08-30 17:20:13 26
27 Matt Schiff No efforts found 33
27 Bryan Derstine No efforts found 33
27 Jason Shields No efforts found 33
27 Mike Ranzinger No efforts found 33
27 Dope Peddler No efforts found 33
27 rob fischer No efforts found 33
27 Greg McVie No efforts found 33
Rhubarb
Place Name Time Activity Date Points
1 Jon Watt 1:50 2015-08-01 17:45:57 1
2 JON HARRACH 1:51 2015-06-28 13:42:06 2
3 robert sharp 1:52 2015-08-30 15:15:15 3
4 Evan Fader 2:01 2015-08-30 15:36:27 4.5
4 Ben Parman 2:01 2015-08-30 13:08:11 4.5
6 Brady Kappius 2:04 2015-09-30 16:20:25 6
7 Michael Franco 2:08 2015-08-30 14:46:09 7
8 Daniel Matheny 2:11 2015-08-30 14:19:02 8.5
8 Eric Fossell 2:11 2015-08-30 14:18:57 8.5
10 Zach Allen 2:13 2015-08-29 13:31:30 10
11 tony mannina 2:20 2015-08-30 14:37:53 11
12 Dan McMahon 2:25 2015-08-30 14:36:35 12
13 Adam Haid 2:28 2015-08-30 14:36:34 13
14 Ryan Petry 2:30 2015-07-13 15:06:59 14
15 TRexa Maria 2:46 2015-08-30 15:26:57 15
16 John Salskov 2:48 2015-07-13 15:06:42 16
17 Cadence Lee 2:51 2015-09-24 18:01:35 17
18 Chris Alstrin 3:04 2015-08-30 13:32:47 18
19 Simon Perkins 3:05 2015-08-30 17:45:49 19
20 Tommy B 3:06 2015-08-30 15:24:02 20
21 Darren Tremblay 3:44 2015-08-30 15:23:19 21
22 Ken Kreidl 32:36 2015-08-30 15:15:19 22
23 Matt Schiff No efforts found 33
23 Bryan Derstine No efforts found 33
23 matt hunt No efforts found 33
23 Jason Shields No efforts found 33
23 Matt Fetbrod No efforts found 33
23 JB Starshow No efforts found 33
23 Mike Ranzinger No efforts found 33
23 Dope Peddler No efforts found 33
23 chris kamp No efforts found 33
23 rob fischer No efforts found 33
23 Greg McVie No efforts found 33
Lower Ark
Place Name Time Activity Date Points
1 Jon Watt 1:27 2015-08-01 18:18:47 1.5
1 robert sharp 1:27 2015-08-30 16:23:17 1.5
3 Evan Fader 1:35 2015-08-30 16:14:16 3
4 Brady Kappius 1:37 2015-09-30 16:44:52 4.5
4 JON HARRACH 1:37 2015-06-28 14:06:13 4.5
6 Daniel Matheny 1:38 2015-08-30 14:48:00 7
6 Ben Parman 1:38 2015-08-30 13:30:25 7
6 Chris Alstrin 1:38 2015-08-30 14:02:24 7
9 Eric Fossell 1:43 2015-08-30 14:48:00 9
10 Adam Haid 1:46 2015-08-30 15:04:26 10
11 Matt Schiff 1:47 2015-08-30 13:01:06 11.5
11 Dan McMahon 1:47 2015-08-30 15:04:28 11.5
13 Michael Franco 1:49 2015-08-30 15:15:08 13
14 Zach Allen 1:50 2015-08-29 14:00:54 14
15 John Salskov 1:55 2015-07-13 15:37:41 15
16 Jason Shields 1:57 2015-08-30 15:51:08 16.5
16 Ryan Petry 1:57 2015-07-13 15:37:42 16.5
18 Ken Kreidl 1:58 2015-08-30 16:23:22 18
19 matt hunt 2:03 2015-08-30 17:46:12 19.5
19 tony mannina 2:03 2015-08-30 15:16:17 19.5
21 Matt Fetbrod 2:04 2015-08-21 17:01:10 21
22 Cadence Lee 2:07 2015-09-24 18:43:00 22
23 Dope Peddler 2:08 2015-08-30 15:26:27 23
24 Greg McVie 2:09 2015-08-30 14:32:36 24
25 Darren Tremblay 2:10 2015-08-30 15:58:50 25
26 Mike Ranzinger 2:17 2015-08-30 14:32:42 26
27 TRexa Maria 2:18 2015-08-30 16:06:20 27
28 Tommy B 2:24 2015-08-30 15:58:53 28
29 Bryan Derstine 2:46 2015-08-30 14:40:13 29
30 chris kamp 2:58 2015-08-30 16:22:29 30
31 JB Starshow No efforts found 33
31 Simon Perkins No efforts found 33
31 rob fischer No efforts found 33
Betasso Connecter Descent, Road to Road
Place Name Time Activity Date Points
1 Jon Watt 3:23 2015-08-01 18:32:05 1
2 robert sharp 3:33 2015-08-30 16:35:58 2
3 Brady Kappius 3:36 2015-09-30 16:54:05 3
4 Chris Alstrin 3:42 2015-08-30 14:12:15 4
5 Ken Kreidl 3:47 2015-08-30 16:36:00 5
6 Ryan Petry 3:49 2015-07-13 15:47:47 6
7 Matt Schiff 3:50 2015-08-30 13:11:26 7
8 John Salskov 3:56 2015-07-13 15:47:39 8
9 JON HARRACH 4:06 2015-06-28 14:15:25 9
10 Evan Fader 4:11 2015-08-30 16:26:24 10
11 Ben Parman 4:20 2015-08-30 13:39:09 11
12 Zach Allen 4:21 2015-08-29 14:12:20 12.5
12 Eric Fossell 4:21 2015-08-30 14:58:52 12.5
14 Dope Peddler 4:29 2015-08-30 15:39:51 14
15 Jason Shields 4:30 2015-08-30 16:04:25 15
16 chris kamp 4:36 2015-08-30 16:36:05 16
17 tony mannina 4:38 2015-08-30 15:27:43 17
18 Cadence Lee 4:43 2015-09-24 18:56:33 18
19 Mike Ranzinger 4:47 2015-08-30 14:45:57 19
20 Simon Perkins 4:58 2015-08-30 18:22:26 20
21 matt hunt 4:59 2015-08-30 18:00:27 21
22 Greg McVie 5:00 2015-08-30 14:45:12 22
23 Dan McMahon 5:15 2015-08-30 15:14:44 23
24 Michael Franco 5:18 2015-08-30 15:26:37 24
25 Darren Tremblay 5:19 2015-08-30 16:13:23 25
26 Adam Haid 5:20 2015-08-30 15:14:45 26
27 JB Starshow 5:24 2015-08-30 15:14:47 27
28 Matt Fetbrod 5:27 2015-08-21 17:14:52 28
29 TRexa Maria 5:47 2015-08-30 16:20:20 29
30 Tommy B 5:49 2015-08-30 16:13:33 30
31 Daniel Matheny 5:58 2015-08-30 14:58:54 31
32 Bryan Derstine No efforts found 33
32 rob fischer No efforts found 33
Total Points
Place Name Points
1 Jon Watt 9.5
2 Brady Kappius 29.5
3 JON HARRACH 43.5
4 robert sharp 55.5
5 Chris Alstrin 69
6 Ben Parman 92.5
7 Eric Fossell 93
8 Zach Allen 103.5
9 Daniel Matheny 108.5
10 Dan McMahon 120
11 Matt Schiff 122
12 Michael Franco 125
13 Adam Haid 141
14 tony mannina 141.5
15 John Salskov 142
16 Ryan Petry 146.5
17 Evan Fader 162.5
18 Ken Kreidl 168.5
19 Jason Shields 180.5
20 Matt Fetbrod 194.5
21 Cadence Lee 198
22 JB Starshow 198
23 Dope Peddler 201
24 chris kamp 216
25 TRexa Maria 216
26 Bryan Derstine 217
27 Darren Tremblay 228
28 Simon Perkins 233
29 Mike Ranzinger 233
30 Greg McVie 233.5
31 matt hunt 247.5
32 Tommy B 260
33 rob fischer 289.5